sensor_id;sensor_type;location;lat;lon;timestamp;temperature;humidity
38604;DHT22;24924;50.054;8.790;2024-03-08T00:00:28;5.60;99.90
38604;DHT22;24924;50.054;8.790;2024-03-08T00:03:14;5.60;99.90
38604;DHT22;24924;50.054;8.790;2024-03-08T00:06:00;5.60;99.90
38604;DHT22;24924;50.054;8.790;2024-03-08T00:08:47;5.50;99.90
38604;DHT22;24924;50.054;8.790;2024-03-08T00:11:34;5.40;99.90
38604;DHT22;24924;50.054;8.790;2024-03-08T00:14:20;5.30;99.90
38604;DHT22;24924;50.054;8.790;2024-03-08T00:17:07;5.30;99.90
38604;DHT22;24924;50.054;8.790;2024-03-08T00:19:55;5.30;99.90
38604;DHT22;24924;50.054;8.790;2024-03-08T00:22:41;5.30;99.90
38604;DHT22;24924;50.054;8.790;2024-03-08T00:25:27;5.20;99.90
38604;DHT22;24924;50.054;8.790;2024-03-08T00:28:14;5.20;99.90
38604;DHT22;24924;50.054;8.790;2024-03-08T00:31:01;5.20;99.90
38604;DHT22;24924;50.054;8.790;2024-03-08T00:33:47;5.20;99.90
38604;DHT22;24924;50.054;8.790;2024-03-08T00:36:33;5.20;99.90
38604;DHT22;24924;50.054;8.790;2024-03-08T00:39:20;5.20;99.90
38604;DHT22;24924;50.054;8.790;2024-03-08T00:42:07;5.10;99.90
38604;DHT22;24924;50.054;8.790;2024-03-08T00:44:53;5.10;99.90
38604;DHT22;24924;50.054;8.790;2024-03-08T00:47:39;5.10;99.90
38604;DHT22;24924;50.054;8.790;2024-03-08T00:50:25;5.00;99.90
38604;DHT22;24924;50.054;8.790;2024-03-08T00:53:12;5.00;99.90
38604;DHT22;24924;50.054;8.790;2024-03-08T00:55:58;5.00;99.90
38604;DHT22;24924;50.054;8.790;2024-03-08T00:58:44;5.30;99.90
38604;DHT22;24924;50.054;8.790;2024-03-08T01:01:31;4.90;99.90
38604;DHT22;24924;50.054;8.790;2024-03-08T01:04:17;4.90;99.90
38604;DHT22;24924;50.054;8.790;2024-03-08T01:07:04;4.80;99.90
38604;DHT22;24924;50.054;8.790;2024-03-08T01:09:50;4.80;99.90
38604;DHT22;24924;50.054;8.790;2024-03-08T01:12:37;4.80;99.90
38604;DHT22;24924;50.054;8.790;2024-03-08T01:15:23;4.70;99.90
38604;DHT22;24924;50.054;8.790;2024-03-08T01:18:10;4.70;99.90
38604;DHT22;24924;50.054;8.790;2024-03-08T01:20:56;4.70;99.90
38604;DHT22;24924;50.054;8.790;2024-03-08T01:23:43;4.70;99.90
38604;DHT22;24924;50.054;8.790;2024-03-08T01:26:29;4.60;99.90
38604;DHT22;24924;50.054;8.790;2024-03-08T01:29:15;4.60;99.90
38604;DHT22;24924;50.054;8.790;2024-03-08T01:32:01;4.60;99.90
38604;DHT22;24924;50.054;8.790;2024-03-08T01:34:48;4.60;99.90
38604;DHT22;24924;50.054;8.790;2024-03-08T01:37:34;4.60;99.90
38604;DHT22;24924;50.054;8.790;2024-03-08T01:40:20;4.50;99.90
38604;DHT22;24924;50.054;8.790;2024-03-08T01:43:25;4.50;99.90
38604;DHT22;24924;50.054;8.790;2024-03-08T01:46:18;4.50;99.90
38604;DHT22;24924;50.054;8.790;2024-03-08T01:49:05;4.50;99.90
38604;DHT22;24924;50.054;8.790;2024-03-08T01:51:51;4.40;99.90
38604;DHT22;24924;50.054;8.790;2024-03-08T01:54:37;4.40;99.90
38604;DHT22;24924;50.054;8.790;2024-03-08T01:57:24;4.40;99.90
38604;DHT22;24924;50.054;8.790;2024-03-08T02:00:11;4.40;99.90
38604;DHT22;24924;50.054;8.790;2024-03-08T02:02:57;4.40;99.90
38604;DHT22;24924;50.054;8.790;2024-03-08T02:05:44;4.30;99.90
38604;DHT22;24924;50.054;8.790;2024-03-08T02:08:30;4.20;99.90
38604;DHT22;24924;50.054;8.790;2024-03-08T02:11:17;4.30;99.90
38604;DHT22;24924;50.054;8.790;2024-03-08T02:14:04;4.20;99.90
38604;DHT22;24924;50.054;8.790;2024-03-08T02:16:52;4.20;99.90
38604;DHT22;24924;50.054;8.790;2024-03-08T02:19:40;4.20;99.90
38604;DHT22;24924;50.054;8.790;2024-03-08T02:22:26;4.20;99.90
38604;DHT22;24924;50.054;8.790;2024-03-08T02:25:12;4.10;99.90
38604;DHT22;24924;50.054;8.790;2024-03-08T02:27:58;4.10;99.90
38604;DHT22;24924;50.054;8.790;2024-03-08T02:30:45;4.10;99.90
38604;DHT22;24924;50.054;8.790;2024-03-08T02:33:34;4.10;99.90
38604;DHT22;24924;50.054;8.790;2024-03-08T02:36:21;4.10;99.90
38604;DHT22;24924;50.054;8.790;2024-03-08T02:39:07;4.10;99.90
38604;DHT22;24924;50.054;8.790;2024-03-08T02:41:53;4.00;99.90
38604;DHT22;24924;50.054;8.790;2024-03-08T02:44:43;4.00;99.90
38604;DHT22;24924;50.054;8.790;2024-03-08T02:47:30;4.10;99.90
38604;DHT22;24924;50.054;8.790;2024-03-08T02:50:17;4.00;99.90
38604;DHT22;24924;50.054;8.790;2024-03-08T02:53:04;4.00;99.90
38604;DHT22;24924;50.054;8.790;2024-03-08T02:55:50;3.90;99.90
38604;DHT22;24924;50.054;8.790;2024-03-08T02:58:36;3.90;99.90
38604;DHT22;24924;50.054;8.790;2024-03-08T03:01:22;3.90;99.90
38604;DHT22;24924;50.054;8.790;2024-03-08T03:04:08;3.80;99.90
38604;DHT22;24924;50.054;8.790;2024-03-08T03:06:55;3.80;99.90
38604;DHT22;24924;50.054;8.790;2024-03-08T03:09:41;3.80;99.90
38604;DHT22;24924;50.054;8.790;2024-03-08T03:12:31;3.80;99.90
38604;DHT22;24924;50.054;8.790;2024-03-08T03:15:17;3.80;99.90
38604;DHT22;24924;50.054;8.790;2024-03-08T03:18:04;3.80;99.90
38604;DHT22;24924;50.054;8.790;2024-03-08T03:20:53;3.80;99.90
38604;DHT22;24924;50.054;8.790;2024-03-08T03:23:40;3.70;99.90
38604;DHT22;24924;50.054;8.790;2024-03-08T03:26:27;3.70;99.90
38604;DHT22;24924;50.054;8.790;2024-03-08T03:29:13;3.70;99.90
38604;DHT22;24924;50.054;8.790;2024-03-08T03:31:59;3.70;99.90
38604;DHT22;24924;50.054;8.790;2024-03-08T03:34:46;3.70;99.90
38604;DHT22;24924;50.054;8.790;2024-03-08T03:37:32;3.60;99.90
38604;DHT22;24924;50.054;8.790;2024-03-08T03:40:18;3.50;99.90
38604;DHT22;24924;50.054;8.790;2024-03-08T03:43:05;3.50;99.90
38604;DHT22;24924;50.054;8.790;2024-03-08T03:45:51;3.60;99.90
38604;DHT22;24924;50.054;8.790;2024-03-08T03:48:38;3.40;99.90
38604;DHT22;24924;50.054;8.790;2024-03-08T03:51:24;3.30;99.90
38604;DHT22;24924;50.054;8.790;2024-03-08T03:54:11;3.40;99.90
38604;DHT22;24924;50.054;8.790;2024-03-08T03:56:57;3.30;99.90
38604;DHT22;24924;50.054;8.790;2024-03-08T03:59:43;3.30;99.90
38604;DHT22;24924;50.054;8.790;2024-03-08T04:02:29;3.30;99.90
38604;DHT22;24924;50.054;8.790;2024-03-08T04:05:16;3.20;99.90
38604;DHT22;24924;50.054;8.790;2024-03-08T04:08:02;3.30;99.90
38604;DHT22;24924;50.054;8.790;2024-03-08T04:10:50;3.20;99.90
38604;DHT22;24924;50.054;8.790;2024-03-08T04:13:37;3.00;99.90
38604;DHT22;24924;50.054;8.790;2024-03-08T04:16:24;2.70;99.90
38604;DHT22;24924;50.054;8.790;2024-03-08T04:19:10;2.60;99.90
38604;DHT22;24924;50.054;8.790;2024-03-08T04:21:56;2.30;99.90
38604;DHT22;24924;50.054;8.790;2024-03-08T04:24:44;2.00;99.90
38604;DHT22;24924;50.054;8.790;2024-03-08T04:27:30;1.90;99.90
38604;DHT22;24924;50.054;8.790;2024-03-08T04:30:18;1.80;99.90
38604;DHT22;24924;50.054;8.790;2024-03-08T04:33:07;1.70;99.90
38604;DHT22;24924;50.054;8.790;2024-03-08T04:35:54;1.50;99.90
38604;DHT22;24924;50.054;8.790;2024-03-08T04:38:41;1.50;99.90
38604;DHT22;24924;50.054;8.790;2024-03-08T04:41:27;1.40;99.90
38604;DHT22;24924;50.054;8.790;2024-03-08T04:44:13;1.30;99.90
38604;DHT22;24924;50.054;8.790;2024-03-08T04:46:59;1.20;99.90
38604;DHT22;24924;50.054;8.790;2024-03-08T04:49:46;1.30;99.90
38604;DHT22;24924;50.054;8.790;2024-03-08T04:52:32;1.30;99.90
38604;DHT22;24924;50.054;8.790;2024-03-08T04:55:18;1.10;99.90
38604;DHT22;24924;50.054;8.790;2024-03-08T04:58:07;1.00;99.90
38604;DHT22;24924;50.054;8.790;2024-03-08T05:00:53;1.00;99.90
38604;DHT22;24924;50.054;8.790;2024-03-08T05:03:39;0.90;99.90
38604;DHT22;24924;50.054;8.790;2024-03-08T05:06:26;0.80;99.90
38604;DHT22;24924;50.054;8.790;2024-03-08T05:09:12;0.70;99.90
38604;DHT22;24924;50.054;8.790;2024-03-08T05:12:02;0.70;99.90
38604;DHT22;24924;50.054;8.790;2024-03-08T05:14:48;0.80;99.90
38604;DHT22;24924;50.054;8.790;2024-03-08T05:17:35;0.80;99.90
38604;DHT22;24924;50.054;8.790;2024-03-08T05:20:22;0.80;99.90
38604;DHT22;24924;50.054;8.790;2024-03-08T05:23:08;0.70;99.90
38604;DHT22;24924;50.054;8.790;2024-03-08T05:25:54;0.60;99.90
38604;DHT22;24924;50.054;8.790;2024-03-08T05:28:41;0.50;99.90
38604;DHT22;24924;50.054;8.790;2024-03-08T05:31:27;0.50;99.90
38604;DHT22;24924;50.054;8.790;2024-03-08T05:34:15;0.50;99.90
38604;DHT22;24924;50.054;8.790;2024-03-08T05:37:01;0.60;99.90
38604;DHT22;24924;50.054;8.790;2024-03-08T05:39:47;0.60;99.90
38604;DHT22;24924;50.054;8.790;2024-03-08T05:42:34;0.60;99.90
38604;DHT22;24924;50.054;8.790;2024-03-08T05:45:21;0.70;99.90
38604;DHT22;24924;50.054;8.790;2024-03-08T05:48:07;0.80;99.90
38604;DHT22;24924;50.054;8.790;2024-03-08T05:50:53;0.80;99.90
38604;DHT22;24924;50.054;8.790;2024-03-08T05:53:40;0.90;99.90
38604;DHT22;24924;50.054;8.790;2024-03-08T05:56:26;1.10;99.90
38604;DHT22;24924;50.054;8.790;2024-03-08T05:59:12;1.00;99.90
38604;DHT22;24924;50.054;8.790;2024-03-08T06:01:58;1.00;99.90
38604;DHT22;24924;50.054;8.790;2024-03-08T06:04:48;1.00;99.90
38604;DHT22;24924;50.054;8.790;2024-03-08T06:07:36;1.10;99.90
38604;DHT22;24924;50.054;8.790;2024-03-08T06:10:22;1.10;99.90
38604;DHT22;24924;50.054;8.790;2024-03-08T06:13:09;1.20;99.90
38604;DHT22;24924;50.054;8.790;2024-03-08T06:15:55;1.30;99.90
38604;DHT22;24924;50.054;8.790;2024-03-08T06:18:41;1.40;99.90
38604;DHT22;24924;50.054;8.790;2024-03-08T06:21:27;1.40;99.90
38604;DHT22;24924;50.054;8.790;2024-03-08T06:24:13;1.60;99.90
38604;DHT22;24924;50.054;8.790;2024-03-08T06:27:01;1.80;99.90
38604;DHT22;24924;50.054;8.790;2024-03-08T06:29:47;1.90;99.90
38604;DHT22;24924;50.054;8.790;2024-03-08T06:32:36;1.90;99.90
38604;DHT22;24924;50.054;8.790;2024-03-08T06:35:23;1.90;99.90
38604;DHT22;24924;50.054;8.790;2024-03-08T06:38:09;2.10;99.90
38604;DHT22;24924;50.054;8.790;2024-03-08T06:40:55;2.20;99.90
38604;DHT22;24924;50.054;8.790;2024-03-08T06:43:43;2.20;99.90
38604;DHT22;24924;50.054;8.790;2024-03-08T06:46:29;2.40;99.90
38604;DHT22;24924;50.054;8.790;2024-03-08T06:49:15;2.40;99.90
38604;DHT22;24924;50.054;8.790;2024-03-08T06:52:02;1.60;99.90
38604;DHT22;24924;50.054;8.790;2024-03-08T06:54:48;2.60;99.90
38604;DHT22;24924;50.054;8.790;2024-03-08T06:57:35;2.70;99.90
38604;DHT22;24924;50.054;8.790;2024-03-08T07:00:21;2.80;99.90
38604;DHT22;24924;50.054;8.790;2024-03-08T07:03:12;2.90;99.90
38604;DHT22;24924;50.054;8.790;2024-03-08T07:06:03;3.00;99.90
38604;DHT22;24924;50.054;8.790;2024-03-08T07:08:50;3.10;99.90
38604;DHT22;24924;50.054;8.790;2024-03-08T07:11:36;3.20;99.90
38604;DHT22;24924;50.054;8.790;2024-03-08T07:14:23;3.30;99.90
38604;DHT22;24924;50.054;8.790;2024-03-08T07:17:09;3.50;99.90
38604;DHT22;24924;50.054;8.790;2024-03-08T07:19:55;3.60;99.90
38604;DHT22;24924;50.054;8.790;2024-03-08T07:22:43;3.80;99.90
38604;DHT22;24924;50.054;8.790;2024-03-08T07:25:29;3.90;99.90
38604;DHT22;24924;50.054;8.790;2024-03-08T07:28:15;4.00;99.90
38604;DHT22;24924;50.054;8.790;2024-03-08T07:31:01;4.20;99.90
38604;DHT22;24924;50.054;8.790;2024-03-08T07:33:59;4.30;99.90
38604;DHT22;24924;50.054;8.790;2024-03-08T07:36:45;4.60;99.90
38604;DHT22;24924;50.054;8.790;2024-03-08T07:39:31;4.70;99.90
38604;DHT22;24924;50.054;8.790;2024-03-08T07:42:17;4.90;99.90
38604;DHT22;24924;50.054;8.790;2024-03-08T07:45:04;5.00;99.90
38604;DHT22;24924;50.054;8.790;2024-03-08T07:47:52;5.20;99.90
38604;DHT22;24924;50.054;8.790;2024-03-08T07:50:40;5.40;99.90
38604;DHT22;24924;50.054;8.790;2024-03-08T07:53:26;5.30;99.90
38604;DHT22;24924;50.054;8.790;2024-03-08T07:56:12;5.60;99.90
38604;DHT22;24924;50.054;8.790;2024-03-08T07:58:59;5.60;99.90
38604;DHT22;24924;50.054;8.790;2024-03-08T08:01:45;5.90;99.90
38604;DHT22;24924;50.054;8.790;2024-03-08T08:04:33;6.10;99.90
38604;DHT22;24924;50.054;8.790;2024-03-08T08:07:19;6.20;99.90
38604;DHT22;24924;50.054;8.790;2024-03-08T08:10:05;6.30;99.90
38604;DHT22;24924;50.054;8.790;2024-03-08T08:12:52;6.70;99.90
38604;DHT22;24924;50.054;8.790;2024-03-08T08:15:38;7.20;99.90
38604;DHT22;24924;50.054;8.790;2024-03-08T08:18:25;7.60;99.90
38604;DHT22;24924;50.054;8.790;2024-03-08T08:21:12;7.90;99.90
38604;DHT22;24924;50.054;8.790;2024-03-08T08:23:58;8.50;99.90
38604;DHT22;24924;50.054;8.790;2024-03-08T08:26:44;9.50;99.90
38604;DHT22;24924;50.054;8.790;2024-03-08T08:29:31;10.40;99.60
38604;DHT22;24924;50.054;8.790;2024-03-08T08:32:19;10.80;98.60
38604;DHT22;24924;50.054;8.790;2024-03-08T08:35:06;11.90;97.80
38604;DHT22;24924;50.054;8.790;2024-03-08T08:37:53;12.60;97.10
38604;DHT22;24924;50.054;8.790;2024-03-08T08:40:39;13.10;96.30
38604;DHT22;24924;50.054;8.790;2024-03-08T08:43:27;13.70;96.00
38604;DHT22;24924;50.054;8.790;2024-03-08T08:46:13;13.30;95.80
38604;DHT22;24924;50.054;8.790;2024-03-08T08:48:59;12.70;96.10
38604;DHT22;24924;50.054;8.790;2024-03-08T08:51:49;12.80;96.20
38604;DHT22;24924;50.054;8.790;2024-03-08T08:54:35;12.90;96.60
38604;DHT22;24924;50.054;8.790;2024-03-08T08:57:22;13.00;95.60
38604;DHT22;24924;50.054;8.790;2024-03-08T09:00:08;12.60;95.90
38604;DHT22;24924;50.054;8.790;2024-03-08T09:02:55;12.60;96.70
38604;DHT22;24924;50.054;8.790;2024-03-08T09:05:43;11.90;97.20
38604;DHT22;24924;50.054;8.790;2024-03-08T09:08:29;11.70;97.70
38604;DHT22;24924;50.054;8.790;2024-03-08T09:11:15;11.70;97.10
38604;DHT22;24924;50.054;8.790;2024-03-08T09:14:02;11.60;96.80
38604;DHT22;24924;50.054;8.790;2024-03-08T09:16:48;12.10;96.80
38604;DHT22;24924;50.054;8.790;2024-03-08T09:19:35;12.40;96.40
38604;DHT22;24924;50.054;8.790;2024-03-08T09:22:21;12.60;96.20
38604;DHT22;24924;50.054;8.790;2024-03-08T09:25:07;12.30;96.10
38604;DHT22;24924;50.054;8.790;2024-03-08T09:27:55;12.40;96.20
38604;DHT22;24924;50.054;8.790;2024-03-08T09:30:41;12.50;96.30
38604;DHT22;24924;50.054;8.790;2024-03-08T09:33:28;11.90;97.10
38604;DHT22;24924;50.054;8.790;2024-03-08T09:36:15;11.60;97.30
38604;DHT22;24924;50.054;8.790;2024-03-08T09:39:01;11.70;97.40
38604;DHT22;24924;50.054;8.790;2024-03-08T09:41:47;11.60;97.20
38604;DHT22;24924;50.054;8.790;2024-03-08T09:44:36;11.50;97.80
38604;DHT22;24924;50.054;8.790;2024-03-08T09:47:24;11.70;98.00
38604;DHT22;24924;50.054;8.790;2024-03-08T09:50:13;11.40;97.30
38604;DHT22;24924;50.054;8.790;2024-03-08T09:52:59;11.30;97.80
38604;DHT22;24924;50.054;8.790;2024-03-08T09:55:46;11.50;97.60
38604;DHT22;24924;50.054;8.790;2024-03-08T09:58:35;11.40;98.20
38604;DHT22;24924;50.054;8.790;2024-03-08T10:01:21;11.20;98.20
38604;DHT22;24924;50.054;8.790;2024-03-08T10:04:07;11.40;97.70
38604;DHT22;24924;50.054;8.790;2024-03-08T10:06:57;11.60;98.40
38604;DHT22;24924;50.054;8.790;2024-03-08T10:09:45;11.80;97.90
38604;DHT22;24924;50.054;8.790;2024-03-08T10:12:36;11.50;97.40
38604;DHT22;24924;50.054;8.790;2024-03-08T10:15:22;11.80;97.80
38604;DHT22;24924;50.054;8.790;2024-03-08T10:18:08;11.70;97.80
38604;DHT22;24924;50.054;8.790;2024-03-08T10:21:05;12.00;97.80
38604;DHT22;24924;50.054;8.790;2024-03-08T10:23:53;11.60;97.10
38604;DHT22;24924;50.054;8.790;2024-03-08T10:26:39;11.20;97.80
38604;DHT22;24924;50.054;8.790;2024-03-08T10:29:25;11.60;97.60
38604;DHT22;24924;50.054;8.790;2024-03-08T10:32:11;11.80;97.90
38604;DHT22;24924;50.054;8.790;2024-03-08T10:34:57;11.70;97.30
38604;DHT22;24924;50.054;8.790;2024-03-08T10:37:48;12.00;97.50
38604;DHT22;24924;50.054;8.790;2024-03-08T10:40:50;12.20;97.30
38604;DHT22;24924;50.054;8.790;2024-03-08T10:50:04;13.20;96.00
38604;DHT22;24924;50.054;8.790;2024-03-08T10:52:52;13.30;95.50
38604;DHT22;24924;50.054;8.790;2024-03-08T10:55:40;14.00;95.70
38604;DHT22;24924;50.054;8.790;2024-03-08T10:58:27;14.70;94.60
38604;DHT22;24924;50.054;8.790;2024-03-08T11:01:14;14.90;93.90
38604;DHT22;24924;50.054;8.790;2024-03-08T11:04:04;14.20;94.40
38604;DHT22;24924;50.054;8.790;2024-03-08T11:06:52;14.40;94.30
38604;DHT22;24924;50.054;8.790;2024-03-08T11:09:42;14.90;93.90
38604;DHT22;24924;50.054;8.790;2024-03-08T11:12:36;14.80;94.30
38604;DHT22;24924;50.054;8.790;2024-03-08T11:15:24;14.80;93.80
38604;DHT22;24924;50.054;8.790;2024-03-08T11:18:10;14.40;93.80
38604;DHT22;24924;50.054;8.790;2024-03-08T11:20:58;13.80;94.60
38604;DHT22;24924;50.054;8.790;2024-03-08T11:24:02;14.00;94.10
38604;DHT22;24924;50.054;8.790;2024-03-08T11:26:56;14.70;94.20
38604;DHT22;24924;50.054;8.790;2024-03-08T11:29:42;15.30;93.60
38604;DHT22;24924;50.054;8.790;2024-03-08T11:32:29;15.50;93.40
38604;DHT22;24924;50.054;8.790;2024-03-08T11:35:20;15.20;93.30
38604;DHT22;24924;50.054;8.790;2024-03-08T11:38:08;15.20;93.20
38604;DHT22;24924;50.054;8.790;2024-03-08T11:40:57;15.30;93.50
38604;DHT22;24924;50.054;8.790;2024-03-08T11:43:43;15.30;92.90
38604;DHT22;24924;50.054;8.790;2024-03-08T11:46:30;15.30;93.20
38604;DHT22;24924;50.054;8.790;2024-03-08T11:49:16;15.40;93.20
38604;DHT22;24924;50.054;8.790;2024-03-08T11:52:03;15.80;92.90
38604;DHT22;24924;50.054;8.790;2024-03-08T11:54:53;15.20;93.20
38604;DHT22;24924;50.054;8.790;2024-03-08T11:57:40;15.40;93.40
38604;DHT22;24924;50.054;8.790;2024-03-08T12:00:28;15.70;93.40
38604;DHT22;24924;50.054;8.790;2024-03-08T12:03:21;16.30;92.80
38604;DHT22;24924;50.054;8.790;2024-03-08T12:06:07;16.50;92.20
38604;DHT22;24924;50.054;8.790;2024-03-08T12:08:55;16.30;92.70
38604;DHT22;24924;50.054;8.790;2024-03-08T12:11:41;16.60;92.30
38604;DHT22;24924;50.054;8.790;2024-03-08T12:14:29;16.30;92.30
38604;DHT22;24924;50.054;8.790;2024-03-08T12:17:15;16.00;92.70
38604;DHT22;24924;50.054;8.790;2024-03-08T12:20:18;16.50;93.00
38604;DHT22;24924;50.054;8.790;2024-03-08T12:23:13;16.50;92.60
38604;DHT22;24924;50.054;8.790;2024-03-08T12:26:13;16.90;92.60
38604;DHT22;24924;50.054;8.790;2024-03-08T12:29:23;16.80;92.00
38604;DHT22;24924;50.054;8.790;2024-03-08T12:32:10;16.70;92.00
38604;DHT22;24924;50.054;8.790;2024-03-08T12:34:57;17.00;92.00
38604;DHT22;24924;50.054;8.790;2024-03-08T12:37:43;17.10;92.00
38604;DHT22;24924;50.054;8.790;2024-03-08T12:40:31;17.10;92.20
38604;DHT22;24924;50.054;8.790;2024-03-08T12:43:18;17.20;92.60
38604;DHT22;24924;50.054;8.790;2024-03-08T12:46:04;17.50;92.20
38604;DHT22;24924;50.054;8.790;2024-03-08T12:48:52;16.40;92.20
38604;DHT22;24924;50.054;8.790;2024-03-08T12:51:39;16.50;92.70
38604;DHT22;24924;50.054;8.790;2024-03-08T12:54:25;16.60;92.50
38604;DHT22;24924;50.054;8.790;2024-03-08T12:57:11;16.80;92.60
38604;DHT22;24924;50.054;8.790;2024-03-08T12:59:58;16.70;92.20
38604;DHT22;24924;50.054;8.790;2024-03-08T13:02:47;15.80;92.40
38604;DHT22;24924;50.054;8.790;2024-03-08T13:05:33;15.40;93.30
38604;DHT22;24924;50.054;8.790;2024-03-08T13:08:20;16.00;92.80
38604;DHT22;24924;50.054;8.790;2024-03-08T13:11:08;16.20;92.70
38604;DHT22;24924;50.054;8.790;2024-03-08T13:13:57;16.10;92.50
38604;DHT22;24924;50.054;8.790;2024-03-08T13:16:45;16.00;92.80
38604;DHT22;24924;50.054;8.790;2024-03-08T13:19:34;16.50;92.40
38604;DHT22;24924;50.054;8.790;2024-03-08T13:22:20;16.60;91.70
38604;DHT22;24924;50.054;8.790;2024-03-08T13:25:08;16.00;92.10
38604;DHT22;24924;50.054;8.790;2024-03-08T13:27:58;15.70;92.50
38604;DHT22;24924;50.054;8.790;2024-03-08T13:30:46;16.00;93.10
38604;DHT22;24924;50.054;8.790;2024-03-08T13:33:33;16.20;92.60
38604;DHT22;24924;50.054;8.790;2024-03-08T13:36:22;16.20;92.50
38604;DHT22;24924;50.054;8.790;2024-03-08T13:39:09;16.00;92.30
38604;DHT22;24924;50.054;8.790;2024-03-08T13:42:02;15.90;92.60
38604;DHT22;24924;50.054;8.790;2024-03-08T13:44:48;15.80;92.80
38604;DHT22;24924;50.054;8.790;2024-03-08T13:47:36;15.90;92.60
38604;DHT22;24924;50.054;8.790;2024-03-08T13:50:23;16.50;92.50
38604;DHT22;24924;50.054;8.790;2024-03-08T13:53:09;16.40;92.20
38604;DHT22;24924;50.054;8.790;2024-03-08T13:55:56;16.60;92.40
38604;DHT22;24924;50.054;8.790;2024-03-08T13:58:42;16.90;92.20
38604;DHT22;24924;50.054;8.790;2024-03-08T14:01:29;17.30;92.00
38604;DHT22;24924;50.054;8.790;2024-03-08T14:04:16;17.40;91.30
38604;DHT22;24924;50.054;8.790;2024-03-08T14:07:03;17.40;91.50
38604;DHT22;24924;50.054;8.790;2024-03-08T14:09:50;17.30;91.50
38604;DHT22;24924;50.054;8.790;2024-03-08T14:12:38;17.30;91.70
38604;DHT22;24924;50.054;8.790;2024-03-08T14:15:25;17.10;91.50
38604;DHT22;24924;50.054;8.790;2024-03-08T14:18:11;17.00;92.10
38604;DHT22;24924;50.054;8.790;2024-03-08T14:20:59;17.60;91.70
38604;DHT22;24924;50.054;8.790;2024-03-08T14:23:45;17.30;91.70
38604;DHT22;24924;50.054;8.790;2024-03-08T14:26:31;16.30;91.90
38604;DHT22;24924;50.054;8.790;2024-03-08T14:29:17;16.00;92.60
38604;DHT22;24924;50.054;8.790;2024-03-08T14:32:07;15.80;92.70
38604;DHT22;24924;50.054;8.790;2024-03-08T14:34:54;15.70;92.60
38604;DHT22;24924;50.054;8.790;2024-03-08T14:37:41;15.80;92.50
38604;DHT22;24924;50.054;8.790;2024-03-08T14:40:29;15.40;92.50
38604;DHT22;24924;50.054;8.790;2024-03-08T14:43:16;15.50;92.80
38604;DHT22;24924;50.054;8.790;2024-03-08T14:46:06;15.20;92.70
38604;DHT22;24924;50.054;8.790;2024-03-08T14:48:53;15.10;93.40
38604;DHT22;24924;50.054;8.790;2024-03-08T14:51:39;15.30;92.90
38604;DHT22;24924;50.054;8.790;2024-03-08T14:54:26;15.20;92.60
38604;DHT22;24924;50.054;8.790;2024-03-08T14:57:13;15.10;92.80
38604;DHT22;24924;50.054;8.790;2024-03-08T14:59:59;15.40;92.60
38604;DHT22;24924;50.054;8.790;2024-03-08T15:02:55;15.30;92.60
38604;DHT22;24924;50.054;8.790;2024-03-08T15:05:43;15.00;92.80
38604;DHT22;24924;50.054;8.790;2024-03-08T15:08:34;14.90;92.90
38604;DHT22;24924;50.054;8.790;2024-03-08T15:11:21;14.90;92.70
38604;DHT22;24924;50.054;8.790;2024-03-08T15:14:11;14.80;93.30
38604;DHT22;24924;50.054;8.790;2024-03-08T15:16:58;14.90;92.80
38604;DHT22;24924;50.054;8.790;2024-03-08T15:19:44;15.00;92.80
38604;DHT22;24924;50.054;8.790;2024-03-08T15:22:30;15.00;93.00
38604;DHT22;24924;50.054;8.790;2024-03-08T15:25:17;15.10;92.60
38604;DHT22;24924;50.054;8.790;2024-03-08T15:28:06;15.10;92.40
38604;DHT22;24924;50.054;8.790;2024-03-08T15:30:59;14.90;92.50
38604;DHT22;24924;50.054;8.790;2024-03-08T15:33:51;15.40;92.40
38604;DHT22;24924;50.054;8.790;2024-03-08T15:36:44;15.90;91.90
38604;DHT22;24924;50.054;8.790;2024-03-08T15:39:33;15.90;91.80
38604;DHT22;24924;50.054;8.790;2024-03-08T15:42:19;16.20;91.90
38604;DHT22;24924;50.054;8.790;2024-03-08T15:45:07;16.30;91.30
38604;DHT22;24924;50.054;8.790;2024-03-08T15:47:55;15.80;91.30
38604;DHT22;24924;50.054;8.790;2024-03-08T15:50:41;15.40;91.70
38604;DHT22;24924;50.054;8.790;2024-03-08T15:53:28;15.50;92.10
38604;DHT22;24924;50.054;8.790;2024-03-08T15:56:19;15.30;92.20
38604;DHT22;24924;50.054;8.790;2024-03-08T15:59:07;15.30;92.30
38604;DHT22;24924;50.054;8.790;2024-03-08T16:01:54;15.00;92.40
38604;DHT22;24924;50.054;8.790;2024-03-08T16:04:40;14.80;92.30
38604;DHT22;24924;50.054;8.790;2024-03-08T16:07:26;14.70;92.70
38604;DHT22;24924;50.054;8.790;2024-03-08T16:10:12;14.60;92.90
38604;DHT22;24924;50.054;8.790;2024-03-08T16:12:58;14.70;92.70
38604;DHT22;24924;50.054;8.790;2024-03-08T16:15:47;14.80;92.80
38604;DHT22;24924;50.054;8.790;2024-03-08T16:18:33;14.60;92.70
38604;DHT22;24924;50.054;8.790;2024-03-08T16:21:23;14.30;92.90
38604;DHT22;24924;50.054;8.790;2024-03-08T16:24:09;14.10;93.00
38604;DHT22;24924;50.054;8.790;2024-03-08T16:26:55;14.20;93.30
38604;DHT22;24924;50.054;8.790;2024-03-08T16:29:42;14.10;93.10
38604;DHT22;24924;50.054;8.790;2024-03-08T16:32:30;13.70;93.40
38604;DHT22;24924;50.054;8.790;2024-03-08T16:35:16;13.50;93.90
38604;DHT22;24924;50.054;8.790;2024-03-08T16:38:04;13.50;93.90
38604;DHT22;24924;50.054;8.790;2024-03-08T16:40:50;13.20;94.30
38604;DHT22;24924;50.054;8.790;2024-03-08T16:43:40;12.90;94.40
38604;DHT22;24924;50.054;8.790;2024-03-08T16:46:29;12.70;94.60
38604;DHT22;24924;50.054;8.790;2024-03-08T16:49:18;12.50;94.90
38604;DHT22;24924;50.054;8.790;2024-03-08T16:52:05;12.20;95.20
38604;DHT22;24924;50.054;8.790;2024-03-08T16:54:52;12.10;95.30
38604;DHT22;24924;50.054;8.790;2024-03-08T16:57:38;11.90;95.40
38604;DHT22;24924;50.054;8.790;2024-03-08T17:00:25;11.70;95.60
38604;DHT22;24924;50.054;8.790;2024-03-08T17:03:14;11.70;95.70
38604;DHT22;24924;50.054;8.790;2024-03-08T17:06:00;11.60;95.90
38604;DHT22;24924;50.054;8.790;2024-03-08T17:08:49;11.50;95.90
38604;DHT22;24924;50.054;8.790;2024-03-08T17:11:35;11.40;95.90
38604;DHT22;24924;50.054;8.790;2024-03-08T17:14:21;11.40;96.00
38604;DHT22;24924;50.054;8.790;2024-03-08T17:17:08;11.20;96.10
38604;DHT22;24924;50.054;8.790;2024-03-08T17:19:55;11.10;96.10
38604;DHT22;24924;50.054;8.790;2024-03-08T17:22:42;11.00;96.10
38604;DHT22;24924;50.054;8.790;2024-03-08T17:25:28;11.00;96.30
38604;DHT22;24924;50.054;8.790;2024-03-08T17:28:15;11.00;96.40
38604;DHT22;24924;50.054;8.790;2024-03-08T17:31:01;10.90;96.50
38604;DHT22;24924;50.054;8.790;2024-03-08T17:33:47;10.90;96.70
38604;DHT22;24924;50.054;8.790;2024-03-08T17:36:33;10.80;96.50
38604;DHT22;24924;50.054;8.790;2024-03-08T17:39:21;10.80;96.70
38604;DHT22;24924;50.054;8.790;2024-03-08T17:42:12;10.70;96.50
38604;DHT22;24924;50.054;8.790;2024-03-08T17:44:59;10.70;96.80
38604;DHT22;24924;50.054;8.790;2024-03-08T17:47:50;10.70;96.90
38604;DHT22;24924;50.054;8.790;2024-03-08T17:50:37;10.60;96.90